sensor_id;sensor_type;location;lat;lon;timestamp;P1;durP1;ratioP1;P2;durP2;ratioP2
47365;SDS011;33105;47.964;7.982;2022-11-15T00:05:40;4.85;;;2.05;;
47365;SDS011;33105;47.964;7.982;2022-11-15T00:09:00;3.60;;;2.05;;
47365;SDS011;33105;47.964;7.982;2022-11-15T00:12:20;6.35;;;1.92;;
47365;SDS011;33105;47.964;7.982;2022-11-15T00:15:40;5.07;;;1.98;;
47365;SDS011;33105;47.964;7.982;2022-11-15T00:19:00;3.45;;;2.17;;
47365;SDS011;33105;47.964;7.982;2022-11-15T00:28:59;2.65;;;1.80;;
47365;SDS011;33105;47.964;7.982;2022-11-15T00:45:38;3.55;;;1.95;;
47365;SDS011;33105;47.964;7.982;2022-11-15T00:55:37;2.40;;;1.80;;
47365;SDS011;33105;47.964;7.982;2022-11-15T00:58:56;4.57;;;2.15;;
47365;SDS011;33105;47.964;7.982;2022-11-15T01:02:16;3.05;;;1.67;;
47365;SDS011;33105;47.964;7.982;2022-11-15T01:08:58;1.92;;;1.55;;
47365;SDS011;33105;47.964;7.982;2022-11-15T01:15:39;3.50;;;1.98;;
47365;SDS011;33105;47.964;7.982;2022-11-15T01:19:00;2.72;;;1.55;;
47365;SDS011;33105;47.964;7.982;2022-11-15T01:22:20;4.93;;;1.45;;
47365;SDS011;33105;47.964;7.982;2022-11-15T01:28:59;2.38;;;1.30;;
47365;SDS011;33105;47.964;7.982;2022-11-15T01:32:19;3.10;;;1.85;;
47365;SDS011;33105;47.964;7.982;2022-11-15T01:38:59;2.67;;;1.50;;
47365;SDS011;33105;47.964;7.982;2022-11-15T01:42:19;2.83;;;1.70;;
47365;SDS011;33105;47.964;7.982;2022-11-15T01:45:39;2.85;;;1.42;;
47365;SDS011;33105;47.964;7.982;2022-11-15T01:49:00;5.03;;;1.70;;
47365;SDS011;33105;47.964;7.982;2022-11-15T01:52:25;5.50;;;2.10;;
47365;SDS011;33105;47.964;7.982;2022-11-15T01:55:48;2.10;;;1.70;;
47365;SDS011;33105;47.964;7.982;2022-11-15T02:02:28;1.83;;;1.42;;
47365;SDS011;33105;47.964;7.982;2022-11-15T02:05:48;4.45;;;1.70;;
47365;SDS011;33105;47.964;7.982;2022-11-15T02:09:09;2.38;;;1.60;;
47365;SDS011;33105;47.964;7.982;2022-11-15T02:12:30;2.65;;;1.90;;
47365;SDS011;33105;47.964;7.982;2022-11-15T02:31:00;2.40;;;1.63;;
47365;SDS011;33105;47.964;7.982;2022-11-15T02:34:26;1.63;;;1.33;;
47365;SDS011;33105;47.964;7.982;2022-11-15T02:42:01;2.13;;;1.80;;
47365;SDS011;33105;47.964;7.982;2022-11-15T02:49:13;2.53;;;1.80;;
47365;SDS011;33105;47.964;7.982;2022-11-15T02:52:34;2.15;;;1.73;;
47365;SDS011;33105;47.964;7.982;2022-11-15T03:02:57;2.63;;;1.40;;
47365;SDS011;33105;47.964;7.982;2022-11-15T03:06:39;3.75;;;1.42;;
47365;SDS011;33105;47.964;7.982;2022-11-15T03:10:06;1.80;;;1.23;;
47365;SDS011;33105;47.964;7.982;2022-11-15T03:13:53;2.90;;;1.20;;
47365;SDS011;33105;47.964;7.982;2022-11-15T03:17:23;2.22;;;1.30;;
47365;SDS011;33105;47.964;7.982;2022-11-15T03:20:47;1.80;;;1.40;;
47365;SDS011;33105;47.964;7.982;2022-11-15T03:24:08;2.92;;;1.85;;
47365;SDS011;33105;47.964;7.982;2022-11-15T03:27:31;3.63;;;1.70;;
47365;SDS011;33105;47.964;7.982;2022-11-15T03:30:59;2.60;;;1.50;;
47365;SDS011;33105;47.964;7.982;2022-11-15T03:34:42;3.28;;;1.33;;
47365;SDS011;33105;47.964;7.982;2022-11-15T03:49:42;2.40;;;2.20;;
47365;SDS011;33105;47.964;7.982;2022-11-15T03:53:06;2.67;;;2.22;;
47365;SDS011;33105;47.964;7.982;2022-11-15T03:56:26;3.45;;;1.80;;
47365;SDS011;33105;47.964;7.982;2022-11-15T03:59:45;2.63;;;2.17;;
47365;SDS011;33105;47.964;7.982;2022-11-15T04:03:05;3.10;;;2.00;;
47365;SDS011;33105;47.964;7.982;2022-11-15T04:06:26;2.85;;;1.77;;
47365;SDS011;33105;47.964;7.982;2022-11-15T04:09:47;3.15;;;1.88;;
47365;SDS011;33105;47.964;7.982;2022-11-15T04:13:22;1.90;;;1.60;;
47365;SDS011;33105;47.964;7.982;2022-11-15T04:16:43;2.20;;;1.40;;
47365;SDS011;33105;47.964;7.982;2022-11-15T04:20:08;2.92;;;1.40;;
47365;SDS011;33105;47.964;7.982;2022-11-15T04:23:47;3.50;;;1.55;;
47365;SDS011;33105;47.964;7.982;2022-11-15T04:27:07;1.40;;;1.25;;
47365;SDS011;33105;47.964;7.982;2022-11-15T04:30:27;1.83;;;1.38;;
47365;SDS011;33105;47.964;7.982;2022-11-15T04:37:06;2.72;;;1.88;;
47365;SDS011;33105;47.964;7.982;2022-11-15T04:40:31;3.28;;;1.52;;
47365;SDS011;33105;47.964;7.982;2022-11-15T04:47:11;2.25;;;1.77;;
47365;SDS011;33105;47.964;7.982;2022-11-15T04:53:50;3.50;;;2.15;;
47365;SDS011;33105;47.964;7.982;2022-11-15T04:57:10;4.88;;;1.90;;
47365;SDS011;33105;47.964;7.982;2022-11-15T05:07:28;5.38;;;2.28;;
47365;SDS011;33105;47.964;7.982;2022-11-15T05:10:51;4.60;;;2.10;;
47365;SDS011;33105;47.964;7.982;2022-11-15T05:17:30;4.80;;;1.98;;
47365;SDS011;33105;47.964;7.982;2022-11-15T05:20:50;2.83;;;2.10;;
47365;SDS011;33105;47.964;7.982;2022-11-15T05:27:30;5.57;;;1.65;;
47365;SDS011;33105;47.964;7.982;2022-11-15T05:30:50;3.15;;;2.20;;
47365;SDS011;33105;47.964;7.982;2022-11-15T05:37:29;2.35;;;2.03;;
47365;SDS011;33105;47.964;7.982;2022-11-15T05:44:10;2.75;;;1.85;;
47365;SDS011;33105;47.964;7.982;2022-11-15T05:47:32;2.63;;;1.77;;
47365;SDS011;33105;47.964;7.982;2022-11-15T05:50:55;2.88;;;1.65;;
47365;SDS011;33105;47.964;7.982;2022-11-15T05:54:15;6.78;;;4.25;;
47365;SDS011;33105;47.964;7.982;2022-11-15T05:57:36;8.63;;;5.47;;
47365;SDS011;33105;47.964;7.982;2022-11-15T06:00:56;7.75;;;5.30;;
47365;SDS011;33105;47.964;7.982;2022-11-15T06:04:17;15.60;;;10.38;;
47365;SDS011;33105;47.964;7.982;2022-11-15T06:07:37;7.57;;;4.80;;
47365;SDS011;33105;47.964;7.982;2022-11-15T06:14:15;7.88;;;4.82;;
47365;SDS011;33105;47.964;7.982;2022-11-15T06:17:35;6.93;;;3.75;;
47365;SDS011;33105;47.964;7.982;2022-11-15T06:24:18;4.53;;;2.70;;
47365;SDS011;33105;47.964;7.982;2022-11-15T06:31:07;2.75;;;2.13;;
47365;SDS011;33105;47.964;7.982;2022-11-15T06:34:33;4.35;;;2.38;;
47365;SDS011;33105;47.964;7.982;2022-11-15T06:37:57;3.08;;;2.10;;
47365;SDS011;33105;47.964;7.982;2022-11-15T06:41:24;2.80;;;2.27;;
47365;SDS011;33105;47.964;7.982;2022-11-15T06:44:44;3.40;;;2.55;;
47365;SDS011;33105;47.964;7.982;2022-11-15T06:51:24;3.60;;;2.47;;
47365;SDS011;33105;47.964;7.982;2022-11-15T06:58:03;5.03;;;2.67;;
47365;SDS011;33105;47.964;7.982;2022-11-15T07:01:22;5.93;;;2.45;;
47365;SDS011;33105;47.964;7.982;2022-11-15T07:04:42;9.52;;;5.50;;
47365;SDS011;33105;47.964;7.982;2022-11-15T07:08:02;6.10;;;3.25;;
47365;SDS011;33105;47.964;7.982;2022-11-15T07:11:22;6.32;;;2.50;;
47365;SDS011;33105;47.964;7.982;2022-11-15T07:18:01;5.00;;;2.50;;
47365;SDS011;33105;47.964;7.982;2022-11-15T07:31:20;5.00;;;2.20;;
47365;SDS011;33105;47.964;7.982;2022-11-15T07:34:41;4.32;;;2.60;;
47365;SDS011;33105;47.964;7.982;2022-11-15T07:41:21;7.28;;;3.05;;
47365;SDS011;33105;47.964;7.982;2022-11-15T07:44:44;7.95;;;3.08;;
47365;SDS011;33105;47.964;7.982;2022-11-15T07:48:04;3.45;;;2.70;;
47365;SDS011;33105;47.964;7.982;2022-11-15T07:51:27;6.05;;;2.70;;
47365;SDS011;33105;47.964;7.982;2022-11-15T07:54:47;3.85;;;2.20;;
47365;SDS011;33105;47.964;7.982;2022-11-15T08:01:29;3.13;;;2.35;;
47365;SDS011;33105;47.964;7.982;2022-11-15T08:11:34;3.22;;;2.28;;
47365;SDS011;33105;47.964;7.982;2022-11-15T08:14:54;3.15;;;2.38;;
47365;SDS011;33105;47.964;7.982;2022-11-15T08:18:15;6.07;;;2.35;;
47365;SDS011;33105;47.964;7.982;2022-11-15T08:21:36;2.47;;;1.90;;
47365;SDS011;33105;47.964;7.982;2022-11-15T08:24:56;8.57;;;3.05;;
47365;SDS011;33105;47.964;7.982;2022-11-15T08:31:36;4.88;;;3.00;;
47365;SDS011;33105;47.964;7.982;2022-11-15T08:34:56;4.63;;;2.38;;
47365;SDS011;33105;47.964;7.982;2022-11-15T08:38:16;3.92;;;2.13;;
47365;SDS011;33105;47.964;7.982;2022-11-15T08:44:56;5.40;;;2.70;;
47365;SDS011;33105;47.964;7.982;2022-11-15T08:48:16;8.68;;;3.55;;
47365;SDS011;33105;47.964;7.982;2022-11-15T08:51:35;8.25;;;3.72;;
47365;SDS011;33105;47.964;7.982;2022-11-15T09:01:34;3.92;;;1.63;;
47365;SDS011;33105;47.964;7.982;2022-11-15T09:11:33;5.32;;;2.20;;
47365;SDS011;33105;47.964;7.982;2022-11-15T09:14:53;2.78;;;1.40;;
47365;SDS011;33105;47.964;7.982;2022-11-15T09:18:14;6.00;;;2.42;;
47365;SDS011;33105;47.964;7.982;2022-11-15T09:21:37;2.70;;;1.90;;
47365;SDS011;33105;47.964;7.982;2022-11-15T09:28:16;1.48;;;1.00;;
47365;SDS011;33105;47.964;7.982;2022-11-15T09:34:56;1.45;;;0.85;;
47365;SDS011;33105;47.964;7.982;2022-11-15T09:38:16;4.32;;;3.00;;
47365;SDS011;33105;47.964;7.982;2022-11-15T09:41:58;3.80;;;2.30;;
47365;SDS011;33105;47.964;7.982;2022-11-15T09:45:26;5.25;;;3.10;;
47365;SDS011;33105;47.964;7.982;2022-11-15T09:49:02;3.13;;;2.28;;
47365;SDS011;33105;47.964;7.982;2022-11-15T09:52:18;2.90;;;2.17;;
47365;SDS011;33105;47.964;7.982;2022-11-15T09:55:20;4.97;;;2.47;;
47365;SDS011;33105;47.964;7.982;2022-11-15T10:05:19;2.38;;;1.23;;
47365;SDS011;33105;47.964;7.982;2022-11-15T10:08:40;3.35;;;1.25;;
47365;SDS011;33105;47.964;7.982;2022-11-15T10:11:51;1.05;;;1.00;;
47365;SDS011;33105;47.964;7.982;2022-11-15T10:14:58;4.13;;;1.08;;
47365;SDS011;33105;47.964;7.982;2022-11-15T10:18:13;1.38;;;0.70;;
47365;SDS011;33105;47.964;7.982;2022-11-15T10:21:24;0.60;;;0.47;;
47365;SDS011;33105;47.964;7.982;2022-11-15T10:24:40;0.55;;;0.40;;
47365;SDS011;33105;47.964;7.982;2022-11-15T10:27:53;0.75;;;0.40;;
47365;SDS011;33105;47.964;7.982;2022-11-15T10:31:27;0.75;;;0.32;;
47365;SDS011;33105;47.964;7.982;2022-11-15T10:34:34;1.33;;;0.50;;
47365;SDS011;33105;47.964;7.982;2022-11-15T10:37:37;3.38;;;0.50;;
47365;SDS011;33105;47.964;7.982;2022-11-15T10:40:47;0.80;;;0.55;;
47365;SDS011;33105;47.964;7.982;2022-11-15T10:50:53;0.80;;;0.57;;
47365;SDS011;33105;47.964;7.982;2022-11-15T10:53:59;0.57;;;0.40;;
47365;SDS011;33105;47.964;7.982;2022-11-15T10:57:05;1.85;;;0.50;;
47365;SDS011;33105;47.964;7.982;2022-11-15T11:03:59;0.35;;;0.35;;
47365;SDS011;33105;47.964;7.982;2022-11-15T11:07:01;1.08;;;0.40;;
47365;SDS011;33105;47.964;7.982;2022-11-15T11:13:49;0.80;;;0.47;;
47365;SDS011;33105;47.964;7.982;2022-11-15T11:20:34;3.00;;;0.68;;
47365;SDS011;33105;47.964;7.982;2022-11-15T11:24:08;1.27;;;0.40;;
47365;SDS011;33105;47.964;7.982;2022-11-15T11:27:43;0.80;;;0.40;;
47365;SDS011;33105;47.964;7.982;2022-11-15T11:34:34;0.50;;;0.50;;
47365;SDS011;33105;47.964;7.982;2022-11-15T11:38:24;4.47;;;0.65;;
47365;SDS011;33105;47.964;7.982;2022-11-15T11:56:37;0.90;;;0.80;;
47365;SDS011;33105;47.964;7.982;2022-11-15T11:59:54;0.50;;;0.50;;
47365;SDS011;33105;47.964;7.982;2022-11-15T12:07:13;0.90;;;0.70;;
47365;SDS011;33105;47.964;7.982;2022-11-15T12:13:25;2.45;;;0.50;;
47365;SDS011;33105;47.964;7.982;2022-11-15T12:16:34;1.75;;;0.70;;
47365;SDS011;33105;47.964;7.982;2022-11-15T12:19:35;1.58;;;0.55;;
47365;SDS011;33105;47.964;7.982;2022-11-15T12:26:24;2.50;;;0.75;;
47365;SDS011;33105;47.964;7.982;2022-11-15T12:32:39;1.50;;;0.90;;
47365;SDS011;33105;47.964;7.982;2022-11-15T12:36:03;1.08;;;0.68;;
47365;SDS011;33105;47.964;7.982;2022-11-15T12:40:36;0.65;;;0.65;;
47365;SDS011;33105;47.964;7.982;2022-11-15T12:43:58;3.47;;;0.80;;
47365;SDS011;33105;47.964;7.982;2022-11-15T12:47:02;1.33;;;0.70;;
47365;SDS011;33105;47.964;7.982;2022-11-15T12:50:12;1.67;;;0.70;;
47365;SDS011;33105;47.964;7.982;2022-11-15T12:56:27;1.50;;;0.50;;
47365;SDS011;33105;47.964;7.982;2022-11-15T12:59:49;0.70;;;0.65;;
47365;SDS011;33105;47.964;7.982;2022-11-15T13:03:15;1.58;;;0.90;;
47365;SDS011;33105;47.964;7.982;2022-11-15T13:07:54;1.08;;;0.52;;
47365;SDS011;33105;47.964;7.982;2022-11-15T13:09:57;0.60;;;0.60;;
47365;SDS011;33105;47.964;7.982;2022-11-15T13:13:03;2.10;;;0.80;;
47365;SDS011;33105;47.964;7.982;2022-11-15T13:16:11;3.30;;;0.68;;
47365;SDS011;33105;47.964;7.982;2022-11-15T13:19:43;1.45;;;0.70;;
47365;SDS011;33105;47.964;7.982;2022-11-15T13:23:10;1.55;;;1.10;;
47365;SDS011;33105;47.964;7.982;2022-11-15T13:26:23;4.05;;;1.90;;
47365;SDS011;33105;47.964;7.982;2022-11-15T13:29:47;4.00;;;2.15;;
47365;SDS011;33105;47.964;7.982;2022-11-15T13:37:09;15.35;;;4.65;;
47365;SDS011;33105;47.964;7.982;2022-11-15T13:40:26;3.65;;;1.60;;
47365;SDS011;33105;47.964;7.982;2022-11-15T13:44:24;3.17;;;1.88;;
47365;SDS011;33105;47.964;7.982;2022-11-15T13:47:36;3.92;;;2.33;;
47365;SDS011;33105;47.964;7.982;2022-11-15T13:50:55;3.70;;;2.15;;
47365;SDS011;33105;47.964;7.982;2022-11-15T13:54:05;6.30;;;1.77;;
47365;SDS011;33105;47.964;7.982;2022-11-15T14:06:03;2.55;;;2.10;;
47365;SDS011;33105;47.964;7.982;2022-11-15T14:12:36;3.67;;;2.10;;
47365;SDS011;33105;47.964;7.982;2022-11-15T14:15:39;3.80;;;1.58;;
47365;SDS011;33105;47.964;7.982;2022-11-15T14:18:42;5.28;;;2.85;;
47365;SDS011;33105;47.964;7.982;2022-11-15T14:22:21;2.80;;;2.17;;
47365;SDS011;33105;47.964;7.982;2022-11-15T14:26:00;2.70;;;1.60;;
47365;SDS011;33105;47.964;7.982;2022-11-15T14:29:29;1.60;;;1.50;;
47365;SDS011;33105;47.964;7.982;2022-11-15T14:32:54;5.13;;;1.88;;
47365;SDS011;33105;47.964;7.982;2022-11-15T14:36:22;2.08;;;1.60;;
47365;SDS011;33105;47.964;7.982;2022-11-15T14:39:50;2.25;;;1.90;;
47365;SDS011;33105;47.964;7.982;2022-11-15T14:43:13;2.28;;;1.63;;
47365;SDS011;33105;47.964;7.982;2022-11-15T14:46:21;4.68;;;2.03;;
47365;SDS011;33105;47.964;7.982;2022-11-15T14:49:25;2.55;;;1.77;;
47365;SDS011;33105;47.964;7.982;2022-11-15T14:53:02;1.90;;;1.35;;
47365;SDS011;33105;47.964;7.982;2022-11-15T14:56:11;3.45;;;1.80;;
47365;SDS011;33105;47.964;7.982;2022-11-15T14:59:22;2.30;;;1.30;;
47365;SDS011;33105;47.964;7.982;2022-11-15T15:02:30;2.00;;;1.33;;
47365;SDS011;33105;47.964;7.982;2022-11-15T15:05:57;3.55;;;1.58;;
47365;SDS011;33105;47.964;7.982;2022-11-15T15:09:11;3.28;;;1.33;;
47365;SDS011;33105;47.964;7.982;2022-11-15T15:12:26;4.45;;;2.40;;
47365;SDS011;33105;47.964;7.982;2022-11-15T15:15:34;11.40;;;4.03;;
47365;SDS011;33105;47.964;7.982;2022-11-15T15:18:38;13.27;;;3.55;;
47365;SDS011;33105;47.964;7.982;2022-11-15T15:21:45;15.27;;;4.97;;
47365;SDS011;33105;47.964;7.982;2022-11-15T15:24:53;6.57;;;2.72;;
47365;SDS011;33105;47.964;7.982;2022-11-15T15:27:54;7.78;;;1.58;;
47365;SDS011;33105;47.964;7.982;2022-11-15T15:30:56;1.67;;;1.13;;
47365;SDS011;33105;47.964;7.982;2022-11-15T15:33:57;4.63;;;1.27;;
47365;SDS011;33105;47.964;7.982;2022-11-15T15:40:33;1.67;;;1.20;;
47365;SDS011;33105;47.964;7.982;2022-11-15T15:43:34;3.78;;;1.10;;
47365;SDS011;33105;47.964;7.982;2022-11-15T15:46:45;2.25;;;1.23;;
47365;SDS011;33105;47.964;7.982;2022-11-15T15:50:29;1.85;;;1.20;;
47365;SDS011;33105;47.964;7.982;2022-11-15T15:53:33;1.33;;;1.20;;
47365;SDS011;33105;47.964;7.982;2022-11-15T15:56:36;1.73;;;1.10;;
47365;SDS011;33105;47.964;7.982;2022-11-15T15:59:38;4.22;;;1.08;;
47365;SDS011;33105;47.964;7.982;2022-11-15T16:02:39;5.22;;;2.90;;
47365;SDS011;33105;47.964;7.982;2022-11-15T16:05:41;4.15;;;1.00;;
47365;SDS011;33105;47.964;7.982;2022-11-15T16:08:43;3.53;;;0.98;;
47365;SDS011;33105;47.964;7.982;2022-11-15T16:11:44;2.35;;;1.00;;
47365;SDS011;33105;47.964;7.982;2022-11-15T16:14:46;1.20;;;1.00;;
47365;SDS011;33105;47.964;7.982;2022-11-15T16:17:51;2.13;;;1.13;;
47365;SDS011;33105;47.964;7.982;2022-11-15T16:20:59;1.95;;;1.20;;
47365;SDS011;33105;47.964;7.982;2022-11-15T16:24:01;3.08;;;1.10;;
47365;SDS011;33105;47.964;7.982;2022-11-15T16:27:02;3.55;;;1.70;;
47365;SDS011;33105;47.964;7.982;2022-11-15T16:30:04;1.60;;;1.30;;
47365;SDS011;33105;47.964;7.982;2022-11-15T16:33:10;4.35;;;1.30;;
47365;SDS011;33105;47.964;7.982;2022-11-15T16:36:22;3.38;;;1.30;;
47365;SDS011;33105;47.964;7.982;2022-11-15T16:39:24;7.45;;;2.00;;
47365;SDS011;33105;47.964;7.982;2022-11-15T16:42:26;3.10;;;1.80;;
47365;SDS011;33105;47.964;7.982;2022-11-15T16:45:47;3.97;;;2.10;;
47365;SDS011;33105;47.964;7.982;2022-11-15T16:48:50;3.15;;;1.70;;
47365;SDS011;33105;47.964;7.982;2022-11-15T16:51:51;1.88;;;1.20;;
47365;SDS011;33105;47.964;7.982;2022-11-15T16:54:53;4.53;;;1.10;;
47365;SDS011;33105;47.964;7.982;2022-11-15T16:57:54;3.53;;;1.00;;
47365;SDS011;33105;47.964;7.982;2022-11-15T17:00:57;1.20;;;0.90;;
47365;SDS011;33105;47.964;7.982;2022-11-15T17:03:59;1.15;;;0.90;;
47365;SDS011;33105;47.964;7.982;2022-11-15T17:07:12;3.13;;;1.00;;
47365;SDS011;33105;47.964;7.982;2022-11-15T17:10:13;1.67;;;1.15;;
47365;SDS011;33105;47.964;7.982;2022-11-15T17:13:18;2.55;;;1.30;;
47365;SDS011;33105;47.964;7.982;2022-11-15T17:16:20;4.43;;;1.88;;
47365;SDS011;33105;47.964;7.982;2022-11-15T17:19:21;1.95;;;1.50;;
47365;SDS011;33105;47.964;7.982;2022-11-15T17:22:23;1.90;;;1.10;;
47365;SDS011;33105;47.964;7.982;2022-11-15T17:25:25;1.63;;;1.27;;
47365;SDS011;33105;47.964;7.982;2022-11-15T17:28:26;2.80;;;1.95;;
47365;SDS011;33105;47.964;7.982;2022-11-15T17:31:27;2.00;;;1.70;;
47365;SDS011;33105;47.964;7.982;2022-11-15T17:34:30;4.82;;;2.17;;
47365;SDS011;33105;47.964;7.982;2022-11-15T17:37:32;2.60;;;1.23;;
47365;SDS011;33105;47.964;7.982;2022-11-15T17:40:34;2.65;;;1.52;;
47365;SDS011;33105;47.964;7.982;2022-11-15T17:43:36;2.60;;;1.05;;
47365;SDS011;33105;47.964;7.982;2022-11-15T17:46:37;2.13;;;0.90;;
47365;SDS011;33105;47.964;7.982;2022-11-15T17:49:40;2.47;;;0.90;;
47365;SDS011;33105;47.964;7.982;2022-11-15T17:52:42;1.98;;;1.13;;
47365;SDS011;33105;47.964;7.982;2022-11-15T17:55:43;1.38;;;1.27;;
47365;SDS011;33105;47.964;7.982;2022-11-15T17:58:49;2.65;;;1.42;;
47365;SDS011;33105;47.964;7.982;2022-11-15T18:02:00;2.63;;;1.50;;
47365;SDS011;33105;47.964;7.982;2022-11-15T18:05:02;2.90;;;2.03;;
47365;SDS011;33105;47.964;7.982;2022-11-15T18:08:03;3.55;;;2.03;;
47365;SDS011;33105;47.964;7.982;2022-11-15T18:11:11;2.50;;;1.88;;
47365;SDS011;33105;47.964;7.982;2022-11-15T18:14:14;2.40;;;1.90;;
47365;SDS011;33105;47.964;7.982;2022-11-15T18:17:16;3.78;;;2.22;;
47365;SDS011;33105;47.964;7.982;2022-11-15T18:20:18;2.50;;;1.70;;
47365;SDS011;33105;47.964;7.982;2022-11-15T18:23:20;3.33;;;2.25;;
47365;SDS011;33105;47.964;7.982;2022-11-15T18:26:21;2.13;;;1.63;;
47365;SDS011;33105;47.964;7.982;2022-11-15T18:29:26;2.05;;;1.85;;
47365;SDS011;33105;47.964;7.982;2022-11-15T18:32:28;4.00;;;2.28;;
47365;SDS011;33105;47.964;7.982;2022-11-15T18:35:29;5.03;;;2.63;;
47365;SDS011;33105;47.964;7.982;2022-11-15T18:38:30;6.28;;;3.90;;
47365;SDS011;33105;47.964;7.982;2022-11-15T18:41:32;7.72;;;4.22;;
47365;SDS011;33105;47.964;7.982;2022-11-15T18:44:33;7.75;;;5.45;;
47365;SDS011;33105;47.964;7.982;2022-11-15T18:47:35;15.18;;;9.80;;
47365;SDS011;33105;47.964;7.982;2022-11-15T18:50:37;13.90;;;8.98;;
47365;SDS011;33105;47.964;7.982;2022-11-15T18:53:38;13.65;;;7.55;;
47365;SDS011;33105;47.964;7.982;2022-11-15T18:56:41;9.73;;;6.53;;
47365;SDS011;33105;47.964;7.982;2022-11-15T18:59:44;8.70;;;5.47;;
47365;SDS011;33105;47.964;7.982;2022-11-15T19:02:45;5.72;;;3.42;;
47365;SDS011;33105;47.964;7.982;2022-11-15T19:05:47;10.98;;;6.00;;
47365;SDS011;33105;47.964;7.982;2022-11-15T19:08:49;6.00;;;3.72;;
47365;SDS011;33105;47.964;7.982;2022-11-15T19:11:52;6.63;;;3.15;;
47365;SDS011;33105;47.964;7.982;2022-11-15T19:14:54;4.53;;;2.45;;
47365;SDS011;33105;47.964;7.982;2022-11-15T19:17:55;6.28;;;2.75;;
47365;SDS011;33105;47.964;7.982;2022-11-15T19:21:07;4.22;;;2.45;;
47365;SDS011;33105;47.964;7.982;2022-11-15T19:24:10;3.90;;;2.65;;
47365;SDS011;33105;47.964;7.982;2022-11-15T19:27:11;4.53;;;2.67;;
47365;SDS011;33105;47.964;7.982;2022-11-15T19:30:13;10.93;;;5.82;;
47365;SDS011;33105;47.964;7.982;2022-11-15T19:33:14;5.68;;;3.35;;
47365;SDS011;33105;47.964;7.982;2022-11-15T19:36:16;6.93;;;3.20;;
47365;SDS011;33105;47.964;7.982;2022-11-15T19:39:20;4.93;;;2.97;;
47365;SDS011;33105;47.964;7.982;2022-11-15T19:42:22;4.07;;;2.72;;
47365;SDS011;33105;47.964;7.982;2022-11-15T19:45:23;5.93;;;3.22;;
47365;SDS011;33105;47.964;7.982;2022-11-15T19:48:24;7.10;;;2.97;;
47365;SDS011;33105;47.964;7.982;2022-11-15T19:51:27;6.93;;;2.83;;
47365;SDS011;33105;47.964;7.982;2022-11-15T19:54:30;5.68;;;2.63;;
47365;SDS011;33105;47.964;7.982;2022-11-15T19:57:31;4.50;;;2.25;;
47365;SDS011;33105;47.964;7.982;2022-11-15T20:00:32;6.13;;;2.58;;
47365;SDS011;33105;47.964;7.982;2022-11-15T20:03:34;5.78;;;2.72;;
47365;SDS011;33105;47.964;7.982;2022-11-15T20:06:38;5.47;;;2.50;;
47365;SDS011;33105;47.964;7.982;2022-11-15T20:09:41;5.03;;;2.30;;
47365;SDS011;33105;47.964;7.982;2022-11-15T20:12:42;5.80;;;2.22;;
47365;SDS011;33105;47.964;7.982;2022-11-15T20:15:43;4.75;;;2.63;;
47365;SDS011;33105;47.964;7.982;2022-11-15T20:18:45;6.13;;;2.67;;
47365;SDS011;33105;47.964;7.982;2022-11-15T20:21:47;4.00;;;2.60;;
47365;SDS011;33105;47.964;7.982;2022-11-15T20:24:48;4.82;;;2.10;;
47365;SDS011;33105;47.964;7.982;2022-11-15T20:27:49;2.25;;;1.67;;
47365;SDS011;33105;47.964;7.982;2022-11-15T20:30:54;3.92;;;2.03;;
47365;SDS011;33105;47.964;7.982;2022-11-15T20:33:57;5.97;;;1.67;;
47365;SDS011;33105;47.964;7.982;2022-11-15T20:36:58;2.70;;;1.48;;
47365;SDS011;33105;47.964;7.982;2022-11-15T20:39:59;3.55;;;2.10;;
47365;SDS011;33105;47.964;7.982;2022-11-15T20:43:01;6.50;;;2.10;;
47365;SDS011;33105;47.964;7.982;2022-11-15T20:46:02;4.22;;;1.83;;
47365;SDS011;33105;47.964;7.982;2022-11-15T20:49:04;3.70;;;2.22;;
47365;SDS011;33105;47.964;7.982;2022-11-15T20:52:06;4.57;;;1.90;;
47365;SDS011;33105;47.964;7.982;2022-11-15T20:55:07;4.75;;;2.13;;
47365;SDS011;33105;47.964;7.982;2022-11-15T20:58:09;3.67;;;2.10;;
47365;SDS011;33105;47.964;7.982;2022-11-15T21:01:11;8.18;;;4.68;;
47365;SDS011;33105;47.964;7.982;2022-11-15T21:04:14;12.45;;;6.00;;
47365;SDS011;33105;47.964;7.982;2022-11-15T21:07:15;6.45;;;4.45;;
47365;SDS011;33105;47.964;7.982;2022-11-15T21:10:17;9.00;;;5.30;;
47365;SDS011;33105;47.964;7.982;2022-11-15T21:13:37;7.00;;;4.25;;
47365;SDS011;33105;47.964;7.982;2022-11-15T21:16:38;4.10;;;2.85;;
47365;SDS011;33105;47.964;7.982;2022-11-15T21:19:40;4.95;;;2.58;;
47365;SDS011;33105;47.964;7.982;2022-11-15T21:22:41;4.40;;;2.53;;
47365;SDS011;33105;47.964;7.982;2022-11-15T21:25:47;4.07;;;2.50;;
47365;SDS011;33105;47.964;7.982;2022-11-15T21:28:51;5.13;;;2.53;;
47365;SDS011;33105;47.964;7.982;2022-11-15T21:31:53;5.03;;;2.20;;
47365;SDS011;33105;47.964;7.982;2022-11-15T21:34:54;7.30;;;2.30;;
47365;SDS011;33105;47.964;7.982;2022-11-15T21:37:55;5.97;;;2.33;;
47365;SDS011;33105;47.964;7.982;2022-11-15T21:40:57;3.88;;;2.15;;
47365;SDS011;33105;47.964;7.982;2022-11-15T21:44:03;4.35;;;2.72;;
47365;SDS011;33105;47.964;7.982;2022-11-15T21:47:04;3.90;;;2.65;;
47365;SDS011;33105;47.964;7.982;2022-11-15T21:50:05;6.53;;;2.60;;
47365;SDS011;33105;47.964;7.982;2022-11-15T21:53:07;4.47;;;2.65;;
47365;SDS011;33105;47.964;7.982;2022-11-15T21:56:08;6.03;;;2.53;;
47365;SDS011;33105;47.964;7.982;2022-11-15T21:59:11;7.80;;;3.10;;
47365;SDS011;33105;47.964;7.982;2022-11-15T22:02:12;3.47;;;2.60;;
47365;SDS011;33105;47.964;7.982;2022-11-15T22:05:17;2.78;;;1.88;;
47365;SDS011;33105;47.964;7.982;2022-11-15T22:08:18;5.90;;;2.10;;
47365;SDS011;33105;47.964;7.982;2022-11-15T22:11:19;5.63;;;2.30;;
47365;SDS011;33105;47.964;7.982;2022-11-15T22:14:20;4.13;;;1.98;;
47365;SDS011;33105;47.964;7.982;2022-11-15T22:17:21;6.32;;;2.53;;
47365;SDS011;33105;47.964;7.982;2022-11-15T22:20:24;4.50;;;2.20;;
47365;SDS011;33105;47.964;7.982;2022-11-15T22:23:28;3.92;;;2.20;;
47365;SDS011;33105;47.964;7.982;2022-11-15T22:26:31;8.15;;;2.42;;
47365;SDS011;33105;47.964;7.982;2022-11-15T22:29:32;8.05;;;2.85;;
47365;SDS011;33105;47.964;7.982;2022-11-15T22:32:33;4.72;;;2.75;;
47365;SDS011;33105;47.964;7.982;2022-11-15T22:35:34;6.30;;;2.60;;
47365;SDS011;33105;47.964;7.982;2022-11-15T22:38:36;4.28;;;2.70;;
47365;SDS011;33105;47.964;7.982;2022-11-15T22:41:37;6.95;;;2.63;;
47365;SDS011;33105;47.964;7.982;2022-11-15T22:44:38;6.38;;;2.80;;
47365;SDS011;33105;47.964;7.982;2022-11-15T22:47:39;3.45;;;2.30;;
47365;SDS011;33105;47.964;7.982;2022-11-15T22:50:43;5.50;;;2.10;;
47365;SDS011;33105;47.964;7.982;2022-11-15T22:53:45;4.22;;;2.15;;
47365;SDS011;33105;47.964;7.982;2022-11-15T22:56:46;4.25;;;2.30;;
47365;SDS011;33105;47.964;7.982;2022-11-15T22:59:47;4.47;;;2.80;;
47365;SDS011;33105;47.964;7.982;2022-11-15T23:02:49;4.40;;;2.55;;
47365;SDS011;33105;47.964;7.982;2022-11-15T23:05:51;5.93;;;2.35;;
47365;SDS011;33105;47.964;7.982;2022-11-15T23:08:53;8.07;;;2.50;;
47365;SDS011;33105;47.964;7.982;2022-11-15T23:11:54;6.07;;;2.15;;
47365;SDS011;33105;47.964;7.982;2022-11-15T23:15:14;2.72;;;1.88;;
47365;SDS011;33105;47.964;7.982;2022-11-15T23:18:16;3.88;;;2.30;;
47365;SDS011;33105;47.964;7.982;2022-11-15T23:21:19;6.47;;;2.47;;
47365;SDS011;33105;47.964;7.982;2022-11-15T23:24:41;4.20;;;2.15;;
47365;SDS011;33105;47.964;7.982;2022-11-15T23:27:42;3.40;;;1.95;;
47365;SDS011;33105;47.964;7.982;2022-11-15T23:30:44;3.05;;;1.98;;
47365;SDS011;33105;47.964;7.982;2022-11-15T23:34:04;3.17;;;2.13;;
47365;SDS011;33105;47.964;7.982;2022-11-15T23:37:06;9.25;;;2.53;;
47365;SDS011;33105;47.964;7.982;2022-11-15T23:40:08;3.42;;;2.20;;
47365;SDS011;33105;47.964;7.982;2022-11-15T23:43:10;6.05;;;2.13;;
47365;SDS011;33105;47.964;7.982;2022-11-15T23:46:11;9.35;;;2.40;;
47365;SDS011;33105;47.964;7.982;2022-11-15T23:49:13;3.97;;;2.10;;